createdAt,value
2019-05-29T00:00:41.465Z,3.77
2019-05-29T00:03:10.501Z,2.87
2019-05-29T00:05:38.632Z,3.12
2019-05-29T00:08:06.657Z,3.05
2019-05-29T00:10:34.782Z,4.47
2019-05-29T00:13:02.833Z,2.12
2019-05-29T00:15:30.915Z,3.92
2019-05-29T00:17:59.017Z,3.42
2019-05-29T00:20:27.275Z,2.37
2019-05-29T00:22:55.265Z,2.25
2019-05-29T00:25:23.385Z,3.72
2019-05-29T00:27:51.485Z,6.03
2019-05-29T00:30:19.924Z,3.55
2019-05-29T00:32:48.043Z,3.87
2019-05-29T00:35:16.487Z,2.05
2019-05-29T00:37:44.733Z,3.58
2019-05-29T00:40:13.384Z,3.33
2019-05-29T00:42:41.451Z,5.05
2019-05-29T00:45:11.446Z,4.95
2019-05-29T00:47:39.628Z,3.87
2019-05-29T00:50:08.203Z,5.85
2019-05-29T00:52:36.201Z,2.10
2019-05-29T00:55:04.581Z,2.27
2019-05-29T00:57:32.864Z,1.20
2019-05-29T01:00:01.117Z,3.15
2019-05-29T01:02:29.247Z,4.03
2019-05-29T01:04:57.202Z,2.33
2019-05-29T01:07:25.182Z,2.72
2019-05-29T01:09:53.275Z,1.72
2019-05-29T01:12:21.358Z,2.08
2019-05-29T01:14:50.612Z,1.80
2019-05-29T01:17:19.800Z,3.62
2019-05-29T01:19:48.906Z,4.25
2019-05-29T01:22:18.665Z,3.92
2019-05-29T01:24:46.774Z,1.42
2019-05-29T01:27:15.160Z,2.65
2019-05-29T01:29:43.138Z,1.77
2019-05-29T01:32:11.149Z,2.30
2019-05-29T01:34:39.435Z,5.40
2019-05-29T01:37:07.416Z,2.95
2019-05-29T01:39:35.446Z,2.72
2019-05-29T01:42:03.756Z,2.62
2019-05-29T01:44:31.741Z,2.67
2019-05-29T01:46:59.760Z,2.15
2019-05-29T01:49:28.047Z,3.70
2019-05-29T01:51:56.150Z,2.10
2019-05-29T01:54:24.148Z,1.87
2019-05-29T01:56:52.150Z,2.22
2019-05-29T01:59:20.120Z,1.60
2019-05-29T02:01:48.116Z,1.35
2019-05-29T02:04:16.117Z,1.90
2019-05-29T02:06:44.128Z,2.12
2019-05-29T02:09:12.124Z,1.00
2019-05-29T02:11:40.124Z,1.75
2019-05-29T02:14:09.231Z,2.67
2019-05-29T02:16:37.233Z,2.50
2019-05-29T02:19:05.558Z,2.67
2019-05-29T02:21:33.554Z,1.45
2019-05-29T02:24:03.151Z,1.60
2019-05-29T02:26:31.137Z,3.83
2019-05-29T02:28:59.374Z,3.50
2019-05-29T02:31:28.914Z,1.47
2019-05-29T02:33:57.137Z,1.52
2019-05-29T02:36:26.656Z,2.72
2019-05-29T02:38:55.160Z,1.77
2019-05-29T02:41:24.205Z,1.67
2019-05-29T02:43:53.041Z,6.65
2019-05-29T02:46:21.786Z,5.17
2019-05-29T02:48:50.256Z,4.17
2019-05-29T02:51:19.614Z,6.97
2019-05-29T02:53:47.770Z,3.85
2019-05-29T02:56:15.753Z,1.95
2019-05-29T02:58:44.553Z,2.72
2019-05-29T03:01:12.541Z,4.20
2019-05-29T03:03:40.637Z,1.90
2019-05-29T03:06:08.598Z,1.30
2019-05-29T03:08:36.712Z,2.95
2019-05-29T03:11:04.727Z,3.45
2019-05-29T03:13:33.685Z,4.28
2019-05-29T03:16:10.751Z,2.72
2019-05-29T03:18:32.578Z,1.87
2019-05-29T03:21:01.603Z,2.60
2019-05-29T03:23:31.119Z,1.32
2019-05-29T03:25:59.475Z,1.05
2019-05-29T03:28:27.639Z,1.55
2019-05-29T03:30:55.688Z,1.25
2019-05-29T03:33:23.638Z,2.40
2019-05-29T03:35:51.607Z,1.07
2019-05-29T03:38:19.613Z,1.12
2019-05-29T03:40:47.972Z,0.90
2019-05-29T03:43:15.993Z,2.87
2019-05-29T03:45:44.282Z,2.98
2019-05-29T03:48:12.579Z,1.92
2019-05-29T03:50:40.604Z,2.00
2019-05-29T03:53:08.891Z,1.50
2019-05-29T03:55:37.896Z,3.10
2019-05-29T03:58:06.289Z,10.78
2019-05-29T04:00:41.749Z,2.37
2019-05-29T04:03:04.190Z,3.83
2019-05-29T04:05:33.418Z,5.53
2019-05-29T04:08:02.031Z,2.87
2019-05-29T04:10:33.694Z,2.62
2019-05-29T04:13:00.711Z,3.52
2019-05-29T04:15:33.762Z,1.80
2019-05-29T04:18:04.409Z,2.72
2019-05-29T04:20:36.066Z,0.65
2019-05-29T04:23:07.654Z,2.25
2019-05-29T04:25:40.577Z,2.07
2019-05-29T04:28:08.196Z,1.37
2019-05-29T04:30:38.645Z,2.10
2019-05-29T04:33:07.319Z,3.05
2019-05-29T04:35:36.874Z,3.95
2019-05-29T04:38:05.184Z,3.87
2019-05-29T04:40:34.806Z,2.30
2019-05-29T04:43:03.011Z,3.05
2019-05-29T04:45:33.036Z,2.52
2019-05-29T04:48:00.985Z,2.77
2019-05-29T04:50:31.491Z,2.52
2019-05-29T04:53:00.068Z,3.37
2019-05-29T04:55:28.625Z,1.57
2019-05-29T04:57:56.753Z,0.68
2019-05-29T05:00:24.757Z,1.82
2019-05-29T05:02:52.726Z,2.90
2019-05-29T05:05:20.748Z,3.00
2019-05-29T05:07:48.735Z,1.75
2019-05-29T05:10:40.903Z,3.15
2019-05-29T05:13:09.329Z,1.15
2019-05-29T05:15:38.110Z,4.40
2019-05-29T05:18:06.880Z,2.52
2019-05-29T05:20:36.255Z,1.85
2019-05-29T05:23:05.223Z,1.35
2019-05-29T05:25:34.185Z,2.37
2019-05-29T05:28:02.909Z,1.02
2019-05-29T05:30:32.305Z,2.40
2019-05-29T05:33:00.895Z,1.62
2019-05-29T05:35:29.046Z,0.78
2019-05-29T05:37:57.016Z,1.65
2019-05-29T05:40:25.027Z,1.10
2019-05-29T05:42:52.995Z,1.72
2019-05-29T05:45:20.986Z,1.47
2019-05-29T05:47:56.898Z,3.12
2019-05-29T05:50:19.169Z,5.20
2019-05-29T05:52:47.181Z,4.67
2019-05-29T05:55:15.347Z,11.48
2019-05-29T05:57:43.342Z,5.95
2019-05-29T06:00:13.797Z,5.05
2019-05-29T06:02:42.145Z,7.03
2019-05-29T06:05:10.959Z,6.78
2019-05-29T06:07:40.259Z,3.00
2019-05-29T06:10:08.737Z,9.98
2019-05-29T06:12:38.699Z,5.08
2019-05-29T06:15:07.065Z,4.72
2019-05-29T06:17:36.620Z,3.83
2019-05-29T06:20:05.397Z,5.58
2019-05-29T06:22:39.115Z,5.85
2019-05-29T06:25:08.163Z,7.28
2019-05-29T06:27:37.128Z,7.37
2019-05-29T06:30:05.390Z,7.25
2019-05-29T06:32:33.537Z,6.42
2019-05-29T06:35:02.151Z,4.85
2019-05-29T06:37:30.365Z,4.87
2019-05-29T06:39:58.460Z,3.42
2019-05-29T06:42:29.803Z,5.47
2019-05-29T06:44:58.513Z,3.83
2019-05-29T06:47:26.544Z,5.12
2019-05-29T06:49:54.638Z,3.42
2019-05-29T06:52:23.644Z,4.45
2019-05-29T06:54:51.676Z,4.92
2019-05-29T06:57:19.658Z,3.90
2019-05-29T06:59:48.935Z,4.05
2019-05-29T07:02:17.032Z,4.50
2019-05-29T07:04:45.003Z,4.92
2019-05-29T07:07:13.103Z,3.17
2019-05-29T07:09:41.149Z,2.65
2019-05-29T07:12:09.133Z,4.83
2019-05-29T07:14:38.188Z,3.15
2019-05-29T07:17:06.223Z,7.60
2019-05-29T07:19:52.165Z,6.67
2019-05-29T07:22:04.810Z,5.05
2019-05-29T07:24:33.838Z,7.42
2019-05-29T07:27:01.856Z,3.02
2019-05-29T07:29:29.954Z,6.05
2019-05-29T07:31:58.183Z,4.47
2019-05-29T07:34:26.433Z,11.38
2019-05-29T07:36:54.552Z,5.78
2019-05-29T07:39:22.533Z,9.93
2019-05-29T07:41:50.500Z,10.20
2019-05-29T07:44:18.612Z,11.12
2019-05-29T07:46:47.126Z,10.60
2019-05-29T07:49:16.738Z,6.08
2019-05-29T07:51:45.127Z,6.58
2019-05-29T07:54:14.686Z,7.97
2019-05-29T07:56:42.999Z,9.15
2019-05-29T07:59:11.299Z,4.17
2019-05-29T08:01:39.249Z,5.55
2019-05-29T08:04:07.331Z,3.55
2019-05-29T08:06:35.447Z,10.50
2019-05-29T08:09:05.451Z,7.75
2019-05-29T08:11:33.593Z,9.08
2019-05-29T08:14:01.973Z,7.03
2019-05-29T08:16:30.038Z,6.03
2019-05-29T08:18:58.115Z,6.08
2019-05-29T08:21:26.521Z,7.03
2019-05-29T08:23:54.488Z,4.92
2019-05-29T08:26:22.747Z,3.80
2019-05-29T08:28:51.291Z,8.35
2019-05-29T08:31:19.385Z,4.70
2019-05-29T08:33:47.385Z,4.72
2019-05-29T08:36:15.395Z,4.58
2019-05-29T08:38:44.518Z,5.75
2019-05-29T08:41:13.366Z,3.35
2019-05-29T08:43:42.539Z,3.35
2019-05-29T08:46:10.585Z,4.47
2019-05-29T08:48:38.556Z,9.85
2019-05-29T08:51:06.727Z,15.38
2019-05-29T08:53:34.678Z,9.83
2019-05-29T08:56:02.943Z,8.83
2019-05-29T08:58:31.075Z,9.28
2019-05-29T09:00:59.078Z,8.68
2019-05-29T09:03:27.095Z,6.95
2019-05-29T09:06:08.596Z,8.78
2019-05-29T09:08:29.387Z,6.62
2019-05-29T09:10:57.690Z,9.00
2019-05-29T09:13:25.946Z,14.50
2019-05-29T09:15:54.875Z,8.53
2019-05-29T09:18:25.519Z,13.40
2019-05-29T09:21:02.919Z,14.60
2019-05-29T09:23:23.388Z,7.22
2019-05-29T09:25:51.490Z,9.18
2019-05-29T09:28:20.335Z,15.95
2019-05-29T09:30:48.596Z,14.78
2019-05-29T09:33:19.552Z,10.05
2019-05-29T09:35:47.317Z,13.38
2019-05-29T09:38:16.751Z,14.68
2019-05-29T09:40:44.935Z,14.58
2019-05-29T09:43:13.172Z,15.03
2019-05-29T09:45:41.156Z,15.93
2019-05-29T09:48:09.183Z,12.03
2019-05-29T09:50:49.417Z,13.95
2019-05-29T09:53:08.648Z,12.58
2019-05-29T09:55:36.634Z,13.70
2019-05-29T09:58:05.193Z,14.65
2019-05-29T10:00:33.195Z,15.78
2019-05-29T10:03:01.484Z,15.30
2019-05-29T10:05:30.164Z,12.70
2019-05-29T10:07:59.641Z,16.23
2019-05-29T10:10:27.930Z,10.72
2019-05-29T10:12:56.477Z,11.48
2019-05-29T10:15:25.070Z,12.18
2019-05-29T10:17:54.118Z,11.43
2019-05-29T10:20:23.500Z,10.35
2019-05-29T10:22:51.661Z,14.93
2019-05-29T10:25:20.243Z,11.88
2019-05-29T10:27:48.307Z,10.93
2019-05-29T10:30:18.580Z,13.78
2019-05-29T10:32:46.547Z,9.23
2019-05-29T10:35:14.591Z,7.87
2019-05-29T10:37:42.865Z,11.22
2019-05-29T10:40:11.475Z,10.23
2019-05-29T10:42:39.904Z,9.70
2019-05-29T10:45:08.608Z,9.45
2019-05-29T10:47:36.677Z,7.67
2019-05-29T10:50:06.205Z,7.20
2019-05-29T10:52:34.264Z,7.15
2019-05-29T10:55:02.646Z,9.78
2019-05-29T10:57:31.736Z,7.75
2019-05-29T10:59:59.732Z,8.13
2019-05-29T11:02:27.701Z,6.80
2019-05-29T11:04:59.079Z,8.55
2019-05-29T11:07:25.626Z,7.20
2019-05-29T11:09:54.260Z,5.70
2019-05-29T11:12:22.360Z,7.67
2019-05-29T11:14:50.813Z,6.67
2019-05-29T11:17:18.900Z,6.17
2019-05-29T11:19:47.188Z,7.03
2019-05-29T11:22:25.672Z,12.13
2019-05-29T11:24:45.142Z,4.45
2019-05-29T11:27:13.107Z,7.83
2019-05-29T11:29:41.117Z,6.10
2019-05-29T11:32:09.184Z,5.75
2019-05-29T11:34:37.148Z,5.00
2019-05-29T11:37:05.413Z,4.62
2019-05-29T11:39:33.395Z,5.70
2019-05-29T11:42:01.377Z,2.85
2019-05-29T11:44:29.475Z,4.47
2019-05-29T11:46:58.178Z,5.67
2019-05-29T11:49:26.292Z,3.50
2019-05-29T11:52:14.685Z,4.70
2019-05-29T11:54:24.792Z,2.55
2019-05-29T11:56:53.666Z,2.10
2019-05-29T11:59:22.911Z,2.22
2019-05-29T12:01:52.595Z,3.58
2019-05-29T12:04:26.262Z,2.15
2019-05-29T12:06:51.221Z,1.65
2019-05-29T12:09:32.369Z,2.45
2019-05-29T12:11:49.152Z,1.82
2019-05-29T12:14:17.174Z,3.05
2019-05-29T12:16:45.118Z,1.50
2019-05-29T12:19:13.087Z,3.47
2019-05-29T12:21:42.740Z,1.95
2019-05-29T12:24:10.964Z,1.87
2019-05-29T12:26:38.932Z,2.52
2019-05-29T12:29:11.348Z,1.70
2019-05-29T12:31:37.784Z,1.85
2019-05-29T12:34:17.875Z,0.90
2019-05-29T12:36:35.965Z,2.12
2019-05-29T12:39:06.459Z,1.72
2019-05-29T12:41:34.414Z,1.35
2019-05-29T12:44:03.563Z,2.37
2019-05-29T12:46:31.686Z,1.17
2019-05-29T12:48:59.632Z,0.80
2019-05-29T12:51:27.612Z,0.98
2019-05-29T12:53:55.873Z,0.72
2019-05-29T12:56:23.846Z,1.25
2019-05-29T12:58:51.835Z,1.07
2019-05-29T13:01:20.131Z,1.50
2019-05-29T13:03:48.393Z,1.00
2019-05-29T13:06:16.386Z,1.17
2019-05-29T13:08:44.359Z,0.75
2019-05-29T13:11:12.327Z,1.67
2019-05-29T13:13:40.376Z,2.42
2019-05-29T13:16:08.633Z,1.57
2019-05-29T13:18:36.897Z,1.00
2019-05-29T13:21:05.256Z,0.62
2019-05-29T13:23:44.778Z,0.90
2019-05-29T13:26:03.705Z,0.95
2019-05-29T13:28:32.084Z,0.45
2019-05-29T13:31:00.160Z,0.25
2019-05-29T13:33:28.138Z,0.50
2019-05-29T13:35:57.793Z,0.60
2019-05-29T13:38:26.306Z,0.62
2019-05-29T13:40:54.328Z,0.10
2019-05-29T13:43:22.611Z,0.40
2019-05-29T13:45:50.880Z,0.68
2019-05-29T13:48:18.849Z,0.80
2019-05-29T13:50:48.878Z,0.62
2019-05-29T13:53:16.762Z,0.60
2019-05-29T13:55:44.729Z,1.35
2019-05-29T13:58:12.712Z,0.20
2019-05-29T14:00:40.658Z,0.35
2019-05-29T14:03:09.346Z,0.28
2019-05-29T14:05:37.442Z,0.20
2019-05-29T14:08:06.872Z,0.20
2019-05-29T14:10:35.437Z,0.90
2019-05-29T14:13:03.591Z,0.30
2019-05-29T14:15:31.556Z,0.40
2019-05-29T14:18:00.682Z,0.20
2019-05-29T14:20:29.373Z,0.30
2019-05-29T14:22:57.468Z,0.10
2019-05-29T14:25:25.493Z,0.10
2019-05-29T14:27:53.862Z,0.10
2019-05-29T14:30:24.529Z,0.30
2019-05-29T14:32:52.501Z,0.30
2019-05-29T14:35:20.492Z,0.47
2019-05-29T14:37:48.491Z,0.30
2019-05-29T14:40:16.556Z,0.10
2019-05-29T14:42:44.811Z,0.13
2019-05-29T14:45:13.486Z,0.40
2019-05-29T14:47:42.588Z,0.30
2019-05-29T14:50:11.343Z,0.20
2019-05-29T14:52:40.837Z,0.10
2019-05-29T14:55:17.402Z,0.15
2019-05-29T14:57:40.348Z,0.17
2019-05-29T15:00:20.642Z,0.10
2019-05-29T15:02:39.219Z,0.35
2019-05-29T15:05:07.682Z,0.00
2019-05-29T15:07:35.915Z,0.10
2019-05-29T15:10:12.782Z,0.00
2019-05-29T15:12:35.118Z,0.10
2019-05-29T15:15:04.753Z,0.10
2019-05-29T15:17:32.996Z,0.10
2019-05-29T15:20:01.010Z,0.00
2019-05-29T15:22:29.040Z,0.00
2019-05-29T15:25:08.080Z,0.10
2019-05-29T15:27:27.057Z,0.25
2019-05-29T15:29:55.050Z,0.57
2019-05-29T15:32:23.093Z,0.20
2019-05-29T15:34:51.367Z,0.20
2019-05-29T15:37:20.404Z,0.00
2019-05-29T15:39:48.510Z,0.10
2019-05-29T15:42:17.060Z,1.22
2019-05-29T15:44:45.419Z,0.00
2019-05-29T15:47:13.425Z,0.05
2019-05-29T15:49:41.699Z,0.00
2019-05-29T15:52:11.011Z,0.20
2019-05-29T15:54:39.336Z,0.10
2019-05-29T15:57:07.325Z,0.00
2019-05-29T15:59:35.513Z,0.10
2019-05-29T16:02:05.390Z,0.10
2019-05-29T16:04:33.494Z,0.00
2019-05-29T16:07:01.534Z,0.10
2019-05-29T16:09:29.526Z,0.00
2019-05-29T16:11:57.550Z,0.47
2019-05-29T16:14:25.556Z,0.00
2019-05-29T16:16:53.662Z,0.00
2019-05-29T16:19:22.563Z,0.00
2019-05-29T16:21:50.608Z,0.10
2019-05-29T16:24:19.018Z,0.20
2019-05-29T16:26:47.118Z,0.10
2019-05-29T16:29:17.349Z,0.00
2019-05-29T16:31:44.976Z,0.00
2019-05-29T16:34:14.343Z,0.23
2019-05-29T16:36:42.942Z,0.08
2019-05-29T16:39:11.415Z,0.30
2019-05-29T16:41:39.914Z,0.00
2019-05-29T16:44:08.866Z,0.00
2019-05-29T16:46:36.839Z,0.03
2019-05-29T16:49:05.179Z,0.33
2019-05-29T16:51:33.113Z,0.00
2019-05-29T16:54:01.096Z,0.00
2019-05-29T16:56:29.134Z,0.00
2019-05-29T16:58:57.126Z,0.35
2019-05-29T17:01:25.168Z,1.17
2019-05-29T17:03:53.471Z,0.00
2019-05-29T17:06:22.425Z,0.00
2019-05-29T17:08:50.572Z,0.00
2019-05-29T17:11:18.637Z,0.20
2019-05-29T17:13:46.669Z,0.00
2019-05-29T17:16:14.641Z,0.00
2019-05-29T17:18:43.659Z,0.05
2019-05-29T17:21:11.714Z,0.00
2019-05-29T17:23:40.139Z,0.00
2019-05-29T17:26:10.985Z,0.10
2019-05-29T17:28:38.377Z,0.20
2019-05-29T17:31:06.392Z,0.10
2019-05-29T17:33:34.792Z,0.00
2019-05-29T17:36:02.888Z,0.00
2019-05-29T17:38:31.028Z,0.20
2019-05-29T17:40:59.021Z,0.00
2019-05-29T17:43:28.750Z,0.10
2019-05-29T17:45:57.017Z,0.00
2019-05-29T17:48:26.035Z,0.08
2019-05-29T17:50:54.098Z,0.00
2019-05-29T17:53:22.516Z,0.20
2019-05-29T17:55:50.828Z,0.03
2019-05-29T17:58:21.034Z,0.00
2019-05-29T18:00:48.931Z,0.10
2019-05-29T18:03:18.346Z,0.75
2019-05-29T18:05:46.388Z,0.10
2019-05-29T18:08:16.671Z,0.00
2019-05-29T18:10:44.715Z,0.20
2019-05-29T18:13:12.892Z,0.00
2019-05-29T18:15:41.046Z,0.00
2019-05-29T18:18:09.422Z,0.00
2019-05-29T18:20:37.654Z,0.00
2019-05-29T18:23:05.700Z,0.00
2019-05-29T18:25:33.812Z,0.00
2019-05-29T18:28:01.789Z,0.10
2019-05-29T18:30:29.858Z,0.25
2019-05-29T18:32:57.934Z,0.00
2019-05-29T18:35:26.949Z,0.00
2019-05-29T18:37:55.047Z,0.05
2019-05-29T18:40:24.222Z,0.00
2019-05-29T18:42:52.431Z,0.62
2019-05-29T18:45:22.877Z,0.03
2019-05-29T18:47:50.693Z,0.23
2019-05-29T18:50:21.401Z,0.10
2019-05-29T18:52:49.617Z,0.10
2019-05-29T18:55:18.488Z,0.08
2019-05-29T18:57:46.491Z,0.00
2019-05-29T19:00:15.424Z,0.10
2019-05-29T19:02:43.633Z,0.00
2019-05-29T19:05:11.802Z,0.00
2019-05-29T19:07:39.800Z,0.00
2019-05-29T19:10:09.482Z,0.00
2019-05-29T19:12:37.556Z,0.00
2019-05-29T19:15:06.033Z,0.00
2019-05-29T19:17:34.627Z,0.20
2019-05-29T19:20:03.297Z,0.00
2019-05-29T19:22:32.409Z,0.00
2019-05-29T19:25:00.721Z,0.00
2019-05-29T19:27:37.502Z,0.10
2019-05-29T19:29:58.621Z,0.00
2019-05-29T19:32:27.258Z,0.35
2019-05-29T19:34:55.501Z,0.00
2019-05-29T19:37:23.897Z,0.10
2019-05-29T19:39:52.120Z,0.10
2019-05-29T19:42:20.211Z,0.00
2019-05-29T19:44:48.394Z,0.00
2019-05-29T19:47:16.593Z,0.00
2019-05-29T19:49:44.626Z,0.15
2019-05-29T19:52:12.842Z,0.00
2019-05-29T19:54:40.928Z,1.30
2019-05-29T19:57:09.044Z,0.10
2019-05-29T19:59:37.276Z,0.55
2019-05-29T20:02:05.470Z,1.85
2019-05-29T20:04:34.724Z,0.42
2019-05-29T20:07:03.158Z,2.95
2019-05-29T20:09:31.451Z,1.52
2019-05-29T20:11:59.401Z,1.17
2019-05-29T20:14:27.628Z,1.07
2019-05-29T20:16:56.105Z,0.72
2019-05-29T20:19:32.414Z,0.42
2019-05-29T20:21:59.841Z,5.30
2019-05-29T20:24:28.749Z,3.20
2019-05-29T20:26:56.907Z,9.30
2019-05-29T20:29:25.036Z,6.37
2019-05-29T20:31:53.437Z,8.70
2019-05-29T20:34:21.560Z,7.22
2019-05-29T20:36:49.601Z,6.25
2019-05-29T20:39:18.386Z,10.35
2019-05-29T20:41:46.894Z,10.95
2019-05-29T20:44:15.024Z,12.07
2019-05-29T20:46:43.136Z,13.10
2019-05-29T20:49:11.296Z,10.60
2019-05-29T20:51:40.287Z,11.85
2019-05-29T20:54:08.495Z,6.25
2019-05-29T20:56:37.665Z,8.65
2019-05-29T20:59:05.847Z,11.25
2019-05-29T21:01:43.009Z,8.15
2019-05-29T21:04:04.139Z,10.70
2019-05-29T21:06:32.485Z,11.53
2019-05-29T21:09:00.497Z,7.33
2019-05-29T21:11:28.644Z,8.48
2019-05-29T21:13:56.852Z,6.70
2019-05-29T21:16:24.818Z,4.55
2019-05-29T21:18:52.795Z,17.90
2019-05-29T21:21:21.553Z,3.92
2019-05-29T21:23:49.528Z,9.88
2019-05-29T21:26:17.493Z,6.37
2019-05-29T21:28:50.463Z,5.62
2019-05-29T21:31:15.373Z,7.87
2019-05-29T21:33:45.823Z,10.75
2019-05-29T21:36:13.231Z,5.80
2019-05-29T21:38:42.231Z,5.62
2019-05-29T21:41:10.260Z,4.92
2019-05-29T21:43:38.638Z,6.35
2019-05-29T21:46:06.596Z,7.53
2019-05-29T21:48:34.547Z,8.40
2019-05-29T21:51:02.561Z,5.33
2019-05-29T21:53:30.647Z,4.15
2019-05-29T21:55:58.582Z,5.17
2019-05-29T21:58:26.608Z,10.25
2019-05-29T22:00:54.662Z,4.45
2019-05-29T22:03:24.546Z,4.30
2019-05-29T22:05:52.630Z,6.75
2019-05-29T22:08:21.584Z,6.05
2019-05-29T22:10:51.376Z,2.95
2019-05-29T22:13:19.782Z,3.62
2019-05-29T22:15:47.747Z,6.25
2019-05-29T22:18:16.139Z,5.67
2019-05-29T22:20:44.108Z,5.35
2019-05-29T22:23:12.352Z,7.72
2019-05-29T22:25:40.332Z,3.05
2019-05-29T22:28:08.323Z,3.10
2019-05-29T22:30:36.366Z,3.17
2019-05-29T22:33:04.337Z,4.58
2019-05-29T22:35:32.372Z,5.10
2019-05-29T22:38:01.688Z,5.58
2019-05-29T22:40:31.297Z,4.83
2019-05-29T22:42:59.980Z,3.98
2019-05-29T22:45:28.677Z,8.18
2019-05-29T22:47:57.815Z,5.22
2019-05-29T22:50:25.846Z,8.35
2019-05-29T22:52:53.907Z,6.17
2019-05-29T22:55:21.872Z,6.83
2019-05-29T22:57:49.872Z,5.37
2019-05-29T23:00:19.341Z,5.50
2019-05-29T23:02:47.568Z,4.28
2019-05-29T23:05:15.884Z,6.65
2019-05-29T23:07:43.945Z,6.30
2019-05-29T23:10:12.844Z,5.50
2019-05-29T23:12:40.918Z,4.08
2019-05-29T23:15:09.287Z,4.47
2019-05-29T23:17:37.238Z,4.95
2019-05-29T23:20:05.505Z,6.22
2019-05-29T23:22:33.480Z,5.62
2019-05-29T23:25:01.458Z,8.60
2019-05-29T23:27:29.702Z,6.25
2019-05-29T23:29:58.889Z,5.78
2019-05-29T23:32:27.301Z,6.97
2019-05-29T23:34:55.317Z,6.53
2019-05-29T23:37:24.695Z,8.68
2019-05-29T23:39:53.092Z,6.87
2019-05-29T23:42:21.156Z,5.08
2019-05-29T23:44:51.953Z,7.67
2019-05-29T23:47:19.006Z,7.87
2019-05-29T23:49:47.010Z,5.95
2019-05-29T23:52:14.979Z,5.62
2019-05-29T23:54:43.010Z,5.35
2019-05-29T23:57:12.293Z,7.47
2019-05-29T23:59:40.258Z,5.72
